Time,TemperatureF,DewpointF,PressureIn,WindDirection,WindDirectionDegrees,WindSpeedMPH,WindSpeedGustMPH,Humidity,HourlyPrecipIn,Conditions,Clouds,dailyrainin,SolarRadiationWatts/m^2,SoftwareType,DateUTC
2013-04-13 00:08:00,42.8,26.0,31.14,SSE,160,17.0,21.0,52,0.00,,,0.00,0,weatherlink.com 1.10,2013-04-13 06:08:00,
2013-04-13 00:23:00,42.7,26.0,31.13,SSE,161,15.0,22.0,53,0.00,,,0.00,0,weatherlink.com 1.10,2013-04-13 06:23:00,
2013-04-13 00:38:00,42.6,27.0,31.12,SSE,166,12.0,22.0,54,0.00,,,0.00,0,weatherlink.com 1.10,2013-04-13 06:38:00,
2013-04-13 00:53:00,42.4,27.0,31.11,SSE,164,17.0,21.0,55,0.00,,,0.00,0,weatherlink.com 1.10,2013-04-13 06:53:00,
2013-04-13 01:08:00,42.2,27.0,31.11,South,171,15.0,24.0,56,0.00,,,0.00,0,weatherlink.com 1.10,2013-04-13 07:08:00,
2013-04-13 01:23:00,42.2,28.0,31.11,South,175,16.0,29.0,57,0.00,,,0.00,0,weatherlink.com 1.10,2013-04-13 07:23:00,
2013-04-13 01:38:00,41.8,29.0,31.10,South,190,17.0,23.0,62,0.00,,,0.00,0,weatherlink.com 1.10,2013-04-13 07:38:00,
2013-04-13 01:53:00,41.3,30.0,31.10,South,177,17.0,28.0,65,0.00,,,0.00,0,weatherlink.com 1.10,2013-04-13 07:53:00,
2013-04-13 02:08:00,40.7,31.0,31.09,South,181,11.0,25.0,69,0.00,,,0.00,0,weatherlink.com 1.10,2013-04-13 08:08:00,
2013-04-13 02:23:00,40.3,32.0,31.09,South,181,14.0,23.0,72,0.00,,,0.00,0,weatherlink.com 1.10,2013-04-13 08:23:00,
2013-04-13 02:38:00,39.3,33.0,31.09,SSW,194,17.0,24.0,77,0.00,,,0.00,0,weatherlink.com 1.10,2013-04-13 08:38:00,
2013-04-13 02:53:00,37.9,34.0,31.09,SSW,196,15.0,22.0,85,0.00,,,0.00,0,weatherlink.com 1.10,2013-04-13 08:53:00,
2013-04-13 03:08:00,37.2,34.0,31.09,South,183,16.0,19.0,89,0.00,,,0.00,0,weatherlink.com 1.10,2013-04-13 09:08:00,
2013-04-13 03:23:00,36.9,34.0,31.08,South,173,17.0,18.0,90,0.01,,,0.01,0,weatherlink.com 1.10,2013-04-13 09:23:00,
2013-04-13 03:38:00,36.9,35.0,31.07,South,178,13.0,18.0,91,0.02,,,0.02,0,weatherlink.com 1.10,2013-04-13 09:38:00,
2013-04-13 03:53:00,37.0,35.0,31.06,SSE,161,14.0,20.0,91,0.03,,,0.03,0,weatherlink.com 1.10,2013-04-13 09:53:00,
2013-04-13 04:08:00,36.9,35.0,31.06,SSE,162,10.0,19.0,91,0.03,,,0.03,0,weatherlink.com 1.10,2013-04-13 10:08:00,
2013-04-13 04:38:00,36.8,35.0,31.05,South,169,8.0,12.0,91,0.02,,,0.04,0,weatherlink.com 1.10,2013-04-13 10:38:00,
2013-04-13 04:53:00,36.7,35.0,31.05,South,175,5.0,10.0,92,0.01,,,0.04,0,weatherlink.com 1.10,2013-04-13 10:53:00,
2013-04-13 05:08:00,36.8,35.0,31.05,NNW,348,1.0,10.0,91,0.01,,,0.04,0,weatherlink.com 1.10,2013-04-13 11:08:00,
2013-04-13 05:23:00,35.5,33.0,31.05,NNE,30,1.0,7.0,90,0.00,,,0.04,0,weatherlink.com 1.10,2013-04-13 11:23:00,
2013-04-13 05:54:00,34.4,32.0,31.04,NNE,13,1.0,8.0,90,0.00,,,0.04,0,weatherlink.com 1.10,2013-04-13 11:54:00,
2013-04-13 06:09:00,34.1,31.0,31.03,NE,40,1.0,10.0,88,0.00,,,0.04,0,weatherlink.com 1.10,2013-04-13 12:09:00,
2013-04-13 06:24:00,34.5,30.0,31.04,ENE,61,4.0,9.0,83,0.00,,,0.04,0,weatherlink.com 1.10,2013-04-13 12:24:00,
2013-04-13 06:39:00,35.1,29.0,31.05,NNW,343,7.0,12.0,78,0.00,,,0.04,0,weatherlink.com 1.10,2013-04-13 12:39:00,
2013-04-13 07:09:00,34.7,29.0,31.06,NNW,331,14.0,14.0,79,0.00,,,0.04,5,weatherlink.com 1.10,2013-04-13 13:09:00,
2013-04-13 07:39:00,34.2,29.0,31.05,NE,43,4.0,7.0,82,0.00,,,0.04,28,weatherlink.com 1.10,2013-04-13 13:39:00,
2013-04-13 07:54:00,34.3,28.0,31.06,NNE,25,0.0,5.0,79,0.00,,,0.04,25,weatherlink.com 1.10,2013-04-13 13:54:00,
2013-04-13 08:09:00,34.6,28.0,31.07,ENE,66,2.0,5.0,78,0.00,,,0.04,12,weatherlink.com 1.10,2013-04-13 14:09:00,
2013-04-13 08:24:00,34.6,29.0,31.07,ENE,78,1.0,9.0,80,0.00,,,0.04,86,weatherlink.com 1.10,2013-04-13 14:24:00,
2013-04-13 08:39:00,34.5,28.0,31.07,South,188,7.0,18.0,77,0.00,,,0.04,69,weatherlink.com 1.10,2013-04-13 14:39:00,
2013-04-13 08:54:00,33.9,29.0,31.06,SE,138,12.0,16.0,82,0.00,,,0.04,98,weatherlink.com 1.10,2013-04-13 14:54:00,
2013-04-13 09:09:00,34.7,28.0,31.07,SSE,160,1.0,8.0,77,0.00,,,0.04,79,weatherlink.com 1.10,2013-04-13 15:09:00,
2013-04-13 09:54:00,30.1,28.0,31.08,NW,311,0.0,8.0,91,0.00,,,0.04,114,weatherlink.com 1.10,2013-04-13 15:54:00,
2013-04-13 10:09:00,31.2,26.0,31.08,SW,219,8.0,15.0,81,0.00,,,0.04,134,weatherlink.com 1.10,2013-04-13 16:09:00,
2013-04-13 10:24:00,32.3,26.0,31.10,NW,319,7.0,15.0,77,0.00,,,0.04,139,weatherlink.com 1.10,2013-04-13 16:24:00,
2013-04-13 10:39:00,31.7,27.0,31.10,WNW,297,11.0,18.0,82,0.00,,,0.04,272,weatherlink.com 1.10,2013-04-13 16:39:00,
2013-04-13 10:54:00,32.4,26.0,31.10,NW,320,14.0,18.0,78,0.00,,,0.04,285,weatherlink.com 1.10,2013-04-13 16:54:00,
2013-04-13 11:09:00,30.0,25.0,31.12,WNW,294,15.0,22.0,82,0.00,,,0.04,186,weatherlink.com 1.10,2013-04-13 17:09:00,
2013-04-13 11:24:00,32.1,21.0,31.13,WNW,302,8.0,21.0,64,0.01,,,0.05,810,weatherlink.com 1.10,2013-04-13 17:24:00,
2013-04-13 11:39:00,34.2,21.0,31.14,NW,323,9.0,21.0,60,0.01,,,0.05,835,weatherlink.com 1.10,2013-04-13 17:39:00,
2013-04-13 12:09:00,34.7,24.0,31.16,West,267,8.0,16.0,64,0.01,,,0.06,784,weatherlink.com 1.10,2013-04-13 18:09:00,
2013-04-13 12:24:00,34.7,21.0,31.17,SSW,205,13.0,20.0,58,0.01,,,0.06,754,weatherlink.com 1.10,2013-04-13 18:24:00,
2013-04-13 12:39:00,33.8,22.0,31.18,SSW,210,16.0,27.0,62,0.01,,,0.06,809,weatherlink.com 1.10,2013-04-13 18:39:00,
2013-04-13 12:54:00,34.4,22.0,31.16,South,186,12.0,19.0,60,0.01,,,0.06,853,weatherlink.com 1.10,2013-04-13 18:54:00,
2013-04-13 13:09:00,34.5,20.0,31.16,SE,145,10.0,17.0,55,0.01,,,0.07,420,weatherlink.com 1.10,2013-04-13 19:09:00,
2013-04-13 13:24:00,36.4,21.0,31.16,SW,230,4.0,9.0,54,0.01,,,0.07,353,weatherlink.com 1.10,2013-04-13 19:24:00,
2013-04-13 13:39:00,34.8,23.0,31.18,WNW,302,12.0,23.0,62,0.01,,,0.07,786,weatherlink.com 1.10,2013-04-13 19:39:00,
2013-04-13 13:54:00,34.6,21.0,31.18,WNW,292,13.0,15.0,57,0.01,,,0.07,898,weatherlink.com 1.10,2013-04-13 19:54:00,
2013-04-13 14:09:00,36.9,22.0,31.18,West,273,9.0,18.0,55,0.00,,,0.07,969,weatherlink.com 1.10,2013-04-13 20:09:00,
2013-04-13 14:24:00,35.6,17.0,31.18,WSW,241,6.0,22.0,47,0.00,,,0.07,248,weatherlink.com 1.10,2013-04-13 20:24:00,
2013-04-13 14:39:00,30.8,22.0,31.21,NW,307,21.0,29.0,71,0.00,,,0.07,76,weatherlink.com 1.10,2013-04-13 20:39:00,
2013-04-13 14:54:00,29.3,23.0,31.21,WNW,297,0.0,7.0,78,0.00,,,0.07,889,weatherlink.com 1.10,2013-04-13 20:54:00,
2013-04-13 15:09:00,32.5,24.0,31.21,South,182,4.0,8.0,70,0.00,,,0.07,962,weatherlink.com 1.10,2013-04-13 21:09:00,
2013-04-13 15:24:00,34.9,21.0,31.22,SW,236,5.0,13.0,58,0.00,,,0.07,271,weatherlink.com 1.10,2013-04-13 21:24:00,
2013-04-13 15:39:00,36.3,20.0,31.21,NW,316,14.0,20.0,53,0.00,,,0.07,928,weatherlink.com 1.10,2013-04-13 21:39:00,
2013-04-13 15:55:00,34.4,20.0,31.23,NW,325,18.0,19.0,57,0.00,,,0.07,262,weatherlink.com 1.10,2013-04-13 21:55:00,
2013-04-13 16:10:00,33.8,21.0,31.24,North,360,9.0,18.0,60,0.00,,,0.07,671,weatherlink.com 1.10,2013-04-13 22:10:00,
2013-04-13 16:25:00,35.9,20.0,31.23,NW,318,6.0,22.0,53,0.00,,,0.07,735,weatherlink.com 1.10,2013-04-13 22:25:00,
2013-04-13 16:40:00,34.8,18.0,31.23,NW,322,19.0,23.0,50,0.00,,,0.07,281,weatherlink.com 1.10,2013-04-13 22:40:00,
2013-04-13 16:55:00,34.9,18.0,31.23,North,350,14.0,18.0,50,0.00,,,0.07,200,weatherlink.com 1.10,2013-04-13 22:55:00,
2013-04-13 17:10:00,37.0,22.0,31.24,NW,318,12.0,17.0,54,0.00,,,0.07,888,weatherlink.com 1.10,2013-04-13 23:10:00,
2013-04-13 17:25:00,35.9,19.0,31.24,NNE,22,5.0,20.0,50,0.00,,,0.07,316,weatherlink.com 1.10,2013-04-13 23:25:00,
2013-04-13 17:40:00,35.2,19.0,31.26,West,280,8.0,21.0,52,0.00,,,0.07,513,weatherlink.com 1.10,2013-04-13 23:40:00,
2013-04-13 17:55:00,33.6,20.0,31.26,WNW,297,10.0,17.0,59,0.00,,,0.07,225,weatherlink.com 1.10,2013-04-13 23:55:00,
2013-04-13 18:10:00,34.0,22.0,31.26,NW,306,12.0,13.0,62,0.00,,,0.07,262,weatherlink.com 1.10,2013-04-14 00:10:00,
2013-04-13 18:25:00,33.7,21.0,31.28,NW,315,7.0,10.0,59,0.00,,,0.07,265,weatherlink.com 1.10,2013-04-14 00:25:00,
2013-04-13 18:40:00,33.5,19.0,31.28,NW,317,9.0,17.0,56,0.00,,,0.07,220,weatherlink.com 1.10,2013-04-14 00:40:00,
2013-04-13 18:55:00,31.8,20.0,31.29,NNW,335,9.0,12.0,62,0.00,,,0.07,67,weatherlink.com 1.10,2013-04-14 00:55:00,
2013-04-13 19:10:00,30.6,22.0,31.29,North,5,2.0,7.0,69,0.00,,,0.07,51,weatherlink.com 1.10,2013-04-14 01:10:00,
2013-04-13 19:25:00,30.3,21.0,31.31,North,5,4.0,9.0,69,0.00,,,0.07,30,weatherlink.com 1.10,2013-04-14 01:25:00,
2013-04-13 19:40:00,30.5,21.0,31.31,WNW,299,2.0,12.0,69,0.00,,,0.07,35,weatherlink.com 1.10,2013-04-14 01:40:00,
2013-04-13 19:55:00,29.9,23.0,31.31,NNW,340,7.0,8.0,75,0.00,,,0.07,32,weatherlink.com 1.10,2013-04-14 01:55:00,
2013-04-13 20:10:00,29.2,23.0,31.32,NNE,17,1.0,5.0,79,0.00,,,0.07,5,weatherlink.com 1.10,2013-04-14 02:10:00,
2013-04-13 20:25:00,28.5,24.0,31.33,North,5,0.0,7.0,83,0.00,,,0.07,0,weatherlink.com 1.10,2013-04-14 02:25:00,
2013-04-13 20:40:00,28.1,25.0,31.34,NNE,19,2.0,7.0,86,0.00,,,0.07,0,weatherlink.com 1.10,2013-04-14 02:40:00,
2013-04-13 20:55:00,27.9,25.0,31.34,NNE,16,4.0,7.0,88,0.00,,,0.07,0,weatherlink.com 1.10,2013-04-14 02:55:00,
2013-04-13 21:10:00,27.4,25.0,31.36,NNW,336,2.0,6.0,90,0.00,,,0.07,0,weatherlink.com 1.10,2013-04-14 03:10:00,
2013-04-13 21:25:00,27.2,25.0,31.37,North,355,0.0,5.0,91,0.00,,,0.07,0,weatherlink.com 1.10,2013-04-14 03:25:00,
2013-04-13 21:40:00,27.2,25.0,31.37,North,360,0.0,2.0,91,0.00,,,0.07,0,weatherlink.com 1.10,2013-04-14 03:40:00,
2013-04-13 21:55:00,27.1,25.0,31.38,North,360,0.0,2.0,92,0.00,,,0.07,0,weatherlink.com 1.10,2013-04-14 03:55:00,
2013-04-13 22:10:00,27.1,25.0,31.39,ENE,64,0.0,5.0,91,0.00,,,0.07,0,weatherlink.com 1.10,2013-04-14 04:10:00,
2013-04-13 22:25:00,27.1,25.0,31.39,SE,137,4.0,4.0,91,0.00,,,0.07,0,weatherlink.com 1.10,2013-04-14 04:25:00,
2013-04-13 22:40:00,27.3,25.0,31.39,East,93,0.0,3.0,91,0.00,,,0.07,0,weatherlink.com 1.10,2013-04-14 04:40:00,
2013-04-13 22:55:00,27.3,25.0,31.40,NNW,338,0.0,2.0,91,0.00,,,0.07,0,weatherlink.com 1.10,2013-04-14 04:55:00,
2013-04-13 23:10:00,27.1,25.0,31.40,SSE,153,2.0,4.0,91,0.00,,,0.07,0,weatherlink.com 1.10,2013-04-14 05:10:00,
2013-04-13 23:25:00,27.3,25.0,31.40,SSE,159,7.0,13.0,90,0.00,,,0.07,0,weatherlink.com 1.10,2013-04-14 05:25:00,
2013-04-13 23:40:00,27.5,25.0,31.40,SE,146,8.0,12.0,89,0.00,,,0.07,0,weatherlink.com 1.10,2013-04-14 05:40:00,
2013-04-13 23:55:00,27.9,25.0,31.40,SSE,147,8.0,11.0,87,0.00,,,0.07,0,weatherlink.com 1.10,2013-04-14 05:55:00,